sensor_id;sensor_type;location;lat;lon;timestamp;P1;durP1;ratioP1;P2;durP2;ratioP2
33830;SDS011;20137;48.834;8.732;2022-11-02T00:02:15;9.48;;;2.15;;
33830;SDS011;20137;48.834;8.732;2022-11-02T00:04:41;9.40;;;2.10;;
33830;SDS011;20137;48.834;8.732;2022-11-02T00:07:06;9.65;;;1.70;;
33830;SDS011;20137;48.834;8.732;2022-11-02T00:09:32;9.10;;;1.70;;
33830;SDS011;20137;48.834;8.732;2022-11-02T00:11:58;11.50;;;1.48;;
33830;SDS011;20137;48.834;8.732;2022-11-02T00:14:23;10.20;;;1.92;;
33830;SDS011;20137;48.834;8.732;2022-11-02T00:16:49;7.40;;;1.83;;
33830;SDS011;20137;48.834;8.732;2022-11-02T00:19:15;9.70;;;1.67;;
33830;SDS011;20137;48.834;8.732;2022-11-02T00:21:41;15.43;;;1.95;;
33830;SDS011;20137;48.834;8.732;2022-11-02T00:24:07;10.77;;;2.20;;
33830;SDS011;20137;48.834;8.732;2022-11-02T00:26:35;7.13;;;1.60;;
33830;SDS011;20137;48.834;8.732;2022-11-02T00:29:02;7.68;;;1.20;;
33830;SDS011;20137;48.834;8.732;2022-11-02T00:31:28;13.45;;;1.55;;
33830;SDS011;20137;48.834;8.732;2022-11-02T00:33:54;10.82;;;1.63;;
33830;SDS011;20137;48.834;8.732;2022-11-02T00:36:20;8.15;;;1.30;;
33830;SDS011;20137;48.834;8.732;2022-11-02T00:38:48;11.18;;;1.50;;
33830;SDS011;20137;48.834;8.732;2022-11-02T00:41:14;10.18;;;1.77;;
33830;SDS011;20137;48.834;8.732;2022-11-02T00:43:41;10.00;;;1.88;;
33830;SDS011;20137;48.834;8.732;2022-11-02T00:46:06;9.65;;;2.33;;
33830;SDS011;20137;48.834;8.732;2022-11-02T00:48:32;7.07;;;1.23;;
33830;SDS011;20137;48.834;8.732;2022-11-02T00:50:57;8.20;;;1.90;;
33830;SDS011;20137;48.834;8.732;2022-11-02T00:53:23;8.15;;;1.73;;
33830;SDS011;20137;48.834;8.732;2022-11-02T00:55:49;6.93;;;1.38;;
33830;SDS011;20137;48.834;8.732;2022-11-02T00:58:15;6.15;;;1.20;;
33830;SDS011;20137;48.834;8.732;2022-11-02T01:00:40;9.10;;;1.80;;
33830;SDS011;20137;48.834;8.732;2022-11-02T01:03:06;7.70;;;1.90;;
33830;SDS011;20137;48.834;8.732;2022-11-02T01:05:32;9.43;;;1.92;;
33830;SDS011;20137;48.834;8.732;2022-11-02T01:07:57;12.15;;;2.08;;
33830;SDS011;20137;48.834;8.732;2022-11-02T01:10:23;10.50;;;1.60;;
33830;SDS011;20137;48.834;8.732;2022-11-02T01:12:50;7.85;;;1.58;;
33830;SDS011;20137;48.834;8.732;2022-11-02T01:15:15;8.70;;;2.50;;
33830;SDS011;20137;48.834;8.732;2022-11-02T01:17:41;5.80;;;1.65;;
33830;SDS011;20137;48.834;8.732;2022-11-02T01:20:07;9.80;;;1.67;;
33830;SDS011;20137;48.834;8.732;2022-11-02T01:22:33;8.20;;;2.05;;
33830;SDS011;20137;48.834;8.732;2022-11-02T01:24:59;9.98;;;1.90;;
33830;SDS011;20137;48.834;8.732;2022-11-02T01:27:25;9.18;;;2.35;;
33830;SDS011;20137;48.834;8.732;2022-11-02T01:29:51;7.32;;;1.70;;
33830;SDS011;20137;48.834;8.732;2022-11-02T01:32:16;8.20;;;1.73;;
33830;SDS011;20137;48.834;8.732;2022-11-02T01:34:42;7.43;;;1.70;;
33830;SDS011;20137;48.834;8.732;2022-11-02T01:37:08;5.43;;;1.80;;
33830;SDS011;20137;48.834;8.732;2022-11-02T01:39:34;17.23;;;2.03;;
33830;SDS011;20137;48.834;8.732;2022-11-02T01:41:59;8.82;;;1.83;;
33830;SDS011;20137;48.834;8.732;2022-11-02T01:44:26;17.23;;;2.38;;
33830;SDS011;20137;48.834;8.732;2022-11-02T01:47:05;7.80;;;1.88;;
33830;SDS011;20137;48.834;8.732;2022-11-02T01:49:37;11.48;;;2.03;;
33830;SDS011;20137;48.834;8.732;2022-11-02T01:52:07;8.38;;;1.90;;
33830;SDS011;20137;48.834;8.732;2022-11-02T01:54:42;9.38;;;2.00;;
33830;SDS011;20137;48.834;8.732;2022-11-02T01:57:12;14.63;;;2.10;;
33830;SDS011;20137;48.834;8.732;2022-11-02T01:59:46;10.88;;;1.88;;
33830;SDS011;20137;48.834;8.732;2022-11-02T02:02:17;7.75;;;1.98;;
33830;SDS011;20137;48.834;8.732;2022-11-02T02:04:46;9.10;;;1.80;;
33830;SDS011;20137;48.834;8.732;2022-11-02T02:07:14;7.65;;;2.20;;
33830;SDS011;20137;48.834;8.732;2022-11-02T02:09:41;12.30;;;2.40;;
33830;SDS011;20137;48.834;8.732;2022-11-02T02:12:06;10.30;;;2.35;;
33830;SDS011;20137;48.834;8.732;2022-11-02T02:14:32;13.63;;;2.15;;
33830;SDS011;20137;48.834;8.732;2022-11-02T02:22:44;9.25;;;2.20;;
33830;SDS011;20137;48.834;8.732;2022-11-02T02:30:49;8.40;;;2.08;;
33830;SDS011;20137;48.834;8.732;2022-11-02T02:36:26;8.85;;;2.10;;
33830;SDS011;20137;48.834;8.732;2022-11-02T02:39:04;7.95;;;1.90;;
33830;SDS011;20137;48.834;8.732;2022-11-02T02:41:39;8.18;;;1.88;;
33830;SDS011;20137;48.834;8.732;2022-11-02T02:44:13;9.00;;;2.20;;
33830;SDS011;20137;48.834;8.732;2022-11-02T02:49:56;7.85;;;1.80;;
33830;SDS011;20137;48.834;8.732;2022-11-02T02:52:27;12.88;;;2.13;;
33830;SDS011;20137;48.834;8.732;2022-11-02T02:54:57;15.55;;;2.08;;
33830;SDS011;20137;48.834;8.732;2022-11-02T02:57:25;6.88;;;2.08;;
33830;SDS011;20137;48.834;8.732;2022-11-02T02:59:54;14.00;;;1.98;;
33830;SDS011;20137;48.834;8.732;2022-11-02T03:02:21;11.05;;;2.03;;
33830;SDS011;20137;48.834;8.732;2022-11-02T03:04:54;6.95;;;1.83;;
33830;SDS011;20137;48.834;8.732;2022-11-02T03:07:21;7.68;;;1.70;;
33830;SDS011;20137;48.834;8.732;2022-11-02T03:09:50;11.73;;;2.15;;
33830;SDS011;20137;48.834;8.732;2022-11-02T03:12:42;5.20;;;1.58;;
33830;SDS011;20137;48.834;8.732;2022-11-02T03:15:53;12.02;;;1.75;;
33830;SDS011;20137;48.834;8.732;2022-11-02T03:18:07;8.77;;;1.83;;
33830;SDS011;20137;48.834;8.732;2022-11-02T03:26:04;9.43;;;2.45;;
33830;SDS011;20137;48.834;8.732;2022-11-02T03:36:45;10.32;;;1.90;;
33830;SDS011;20137;48.834;8.732;2022-11-02T03:39:26;6.97;;;1.73;;
33830;SDS011;20137;48.834;8.732;2022-11-02T03:41:56;9.55;;;1.90;;
33830;SDS011;20137;48.834;8.732;2022-11-02T03:44:26;8.63;;;1.70;;
33830;SDS011;20137;48.834;8.732;2022-11-02T03:46:55;9.25;;;2.13;;
33830;SDS011;20137;48.834;8.732;2022-11-02T03:49:24;9.35;;;1.95;;
33830;SDS011;20137;48.834;8.732;2022-11-02T03:51:54;7.93;;;2.17;;
33830;SDS011;20137;48.834;8.732;2022-11-02T03:54:38;15.75;;;1.92;;
33830;SDS011;20137;48.834;8.732;2022-11-02T03:57:18;12.95;;;2.22;;
33830;SDS011;20137;48.834;8.732;2022-11-02T03:59:47;16.42;;;2.13;;
33830;SDS011;20137;48.834;8.732;2022-11-02T04:02:14;10.18;;;1.92;;
33830;SDS011;20137;48.834;8.732;2022-11-02T04:04:47;12.15;;;2.83;;
33830;SDS011;20137;48.834;8.732;2022-11-02T04:07:21;11.05;;;1.80;;
33830;SDS011;20137;48.834;8.732;2022-11-02T04:09:50;14.40;;;2.17;;
33830;SDS011;20137;48.834;8.732;2022-11-02T04:12:16;9.95;;;1.88;;
33830;SDS011;20137;48.834;8.732;2022-11-02T04:15:00;8.32;;;2.08;;
33830;SDS011;20137;48.834;8.732;2022-11-02T04:17:25;8.40;;;1.58;;
33830;SDS011;20137;48.834;8.732;2022-11-02T04:20:10;12.40;;;2.28;;
33830;SDS011;20137;48.834;8.732;2022-11-02T04:22:36;12.10;;;2.70;;
33830;SDS011;20137;48.834;8.732;2022-11-02T04:25:20;11.75;;;2.38;;
33830;SDS011;20137;48.834;8.732;2022-11-02T04:27:47;8.65;;;1.67;;
33830;SDS011;20137;48.834;8.732;2022-11-02T04:30:14;7.30;;;1.90;;
33830;SDS011;20137;48.834;8.732;2022-11-02T04:32:42;10.57;;;2.20;;
33830;SDS011;20137;48.834;8.732;2022-11-02T04:35:28;13.85;;;2.22;;
33830;SDS011;20137;48.834;8.732;2022-11-02T04:37:54;11.82;;;1.90;;
33830;SDS011;20137;48.834;8.732;2022-11-02T04:40:39;9.82;;;2.15;;
33830;SDS011;20137;48.834;8.732;2022-11-02T04:43:05;13.30;;;2.25;;
33830;SDS011;20137;48.834;8.732;2022-11-02T04:45:30;8.35;;;2.33;;
33830;SDS011;20137;48.834;8.732;2022-11-02T04:48:00;16.02;;;2.40;;
33830;SDS011;20137;48.834;8.732;2022-11-02T04:50:33;8.90;;;1.90;;
33830;SDS011;20137;48.834;8.732;2022-11-02T04:53:00;10.07;;;1.80;;
33830;SDS011;20137;48.834;8.732;2022-11-02T04:55:27;14.43;;;2.70;;
33830;SDS011;20137;48.834;8.732;2022-11-02T04:57:53;13.18;;;2.35;;
33830;SDS011;20137;48.834;8.732;2022-11-02T05:00:19;14.45;;;2.17;;
33830;SDS011;20137;48.834;8.732;2022-11-02T05:02:46;10.25;;;1.90;;
33830;SDS011;20137;48.834;8.732;2022-11-02T05:05:13;11.27;;;2.10;;
33830;SDS011;20137;48.834;8.732;2022-11-02T05:07:39;9.25;;;3.15;;
33830;SDS011;20137;48.834;8.732;2022-11-02T05:10:05;8.45;;;1.63;;
33830;SDS011;20137;48.834;8.732;2022-11-02T05:12:31;10.10;;;2.35;;
33830;SDS011;20137;48.834;8.732;2022-11-02T05:14:58;11.55;;;2.45;;
33830;SDS011;20137;48.834;8.732;2022-11-02T05:17:23;11.93;;;2.15;;
33830;SDS011;20137;48.834;8.732;2022-11-02T05:19:49;15.77;;;2.20;;
33830;SDS011;20137;48.834;8.732;2022-11-02T05:22:14;10.90;;;2.47;;
33830;SDS011;20137;48.834;8.732;2022-11-02T05:24:40;12.35;;;2.00;;
33830;SDS011;20137;48.834;8.732;2022-11-02T05:27:06;7.55;;;1.85;;
33830;SDS011;20137;48.834;8.732;2022-11-02T05:29:33;11.00;;;2.20;;
33830;SDS011;20137;48.834;8.732;2022-11-02T05:31:58;8.57;;;1.75;;
33830;SDS011;20137;48.834;8.732;2022-11-02T05:34:24;9.02;;;1.70;;
33830;SDS011;20137;48.834;8.732;2022-11-02T05:36:50;16.15;;;1.90;;
33830;SDS011;20137;48.834;8.732;2022-11-02T05:39:16;13.70;;;2.25;;
33830;SDS011;20137;48.834;8.732;2022-11-02T05:41:41;13.48;;;1.63;;
33830;SDS011;20137;48.834;8.732;2022-11-02T05:44:07;10.27;;;2.08;;
33830;SDS011;20137;48.834;8.732;2022-11-02T05:46:33;7.25;;;1.85;;
33830;SDS011;20137;48.834;8.732;2022-11-02T05:48:58;14.93;;;1.88;;
33830;SDS011;20137;48.834;8.732;2022-11-02T05:51:24;8.77;;;1.85;;
33830;SDS011;20137;48.834;8.732;2022-11-02T05:53:50;24.70;;;10.20;;
33830;SDS011;20137;48.834;8.732;2022-11-02T05:56:15;44.72;;;21.55;;
33830;SDS011;20137;48.834;8.732;2022-11-02T05:58:41;17.23;;;6.72;;
33830;SDS011;20137;48.834;8.732;2022-11-02T06:01:07;8.27;;;2.83;;
33830;SDS011;20137;48.834;8.732;2022-11-02T06:03:34;7.93;;;2.90;;
33830;SDS011;20137;48.834;8.732;2022-11-02T06:06:01;15.23;;;2.15;;
33830;SDS011;20137;48.834;8.732;2022-11-02T06:08:32;11.00;;;4.40;;
33830;SDS011;20137;48.834;8.732;2022-11-02T06:11:09;13.70;;;3.78;;
33830;SDS011;20137;48.834;8.732;2022-11-02T06:13:36;16.00;;;2.78;;
33830;SDS011;20137;48.834;8.732;2022-11-02T06:16:03;15.15;;;2.70;;
33830;SDS011;20137;48.834;8.732;2022-11-02T06:18:30;10.90;;;2.53;;
33830;SDS011;20137;48.834;8.732;2022-11-02T06:20:56;7.32;;;2.50;;
33830;SDS011;20137;48.834;8.732;2022-11-02T06:23:23;10.77;;;2.30;;
33830;SDS011;20137;48.834;8.732;2022-11-02T06:25:50;10.10;;;2.33;;
33830;SDS011;20137;48.834;8.732;2022-11-02T06:28:16;10.18;;;2.25;;
33830;SDS011;20137;48.834;8.732;2022-11-02T06:30:42;20.17;;;4.15;;
33830;SDS011;20137;48.834;8.732;2022-11-02T06:33:08;13.70;;;4.18;;
33830;SDS011;20137;48.834;8.732;2022-11-02T06:35:33;11.18;;;3.08;;
33830;SDS011;20137;48.834;8.732;2022-11-02T06:37:59;11.02;;;3.63;;
33830;SDS011;20137;48.834;8.732;2022-11-02T06:40:25;12.80;;;2.70;;
33830;SDS011;20137;48.834;8.732;2022-11-02T06:42:55;8.95;;;1.98;;
33830;SDS011;20137;48.834;8.732;2022-11-02T06:45:22;11.52;;;1.90;;
33830;SDS011;20137;48.834;8.732;2022-11-02T06:47:49;13.68;;;2.55;;
33830;SDS011;20137;48.834;8.732;2022-11-02T06:50:15;13.35;;;1.67;;
33830;SDS011;20137;48.834;8.732;2022-11-02T06:52:44;16.67;;;1.90;;
33830;SDS011;20137;48.834;8.732;2022-11-02T06:55:10;9.13;;;2.00;;
33830;SDS011;20137;48.834;8.732;2022-11-02T06:57:37;12.18;;;1.67;;
33830;SDS011;20137;48.834;8.732;2022-11-02T07:00:04;7.43;;;1.65;;
33830;SDS011;20137;48.834;8.732;2022-11-02T07:02:33;9.60;;;2.85;;
33830;SDS011;20137;48.834;8.732;2022-11-02T07:04:58;10.18;;;2.30;;
33830;SDS011;20137;48.834;8.732;2022-11-02T07:07:24;16.00;;;2.38;;
33830;SDS011;20137;48.834;8.732;2022-11-02T07:09:50;14.65;;;6.32;;
33830;SDS011;20137;48.834;8.732;2022-11-02T07:12:15;44.20;;;21.25;;
33830;SDS011;20137;48.834;8.732;2022-11-02T07:14:41;14.30;;;6.47;;
33830;SDS011;20137;48.834;8.732;2022-11-02T07:17:07;16.13;;;1.95;;
33830;SDS011;20137;48.834;8.732;2022-11-02T07:19:32;11.63;;;2.25;;
33830;SDS011;20137;48.834;8.732;2022-11-02T07:21:58;13.38;;;3.90;;
33830;SDS011;20137;48.834;8.732;2022-11-02T07:24:24;27.13;;;8.23;;
33830;SDS011;20137;48.834;8.732;2022-11-02T07:26:49;40.17;;;12.93;;
33830;SDS011;20137;48.834;8.732;2022-11-02T07:29:18;14.30;;;3.85;;
33830;SDS011;20137;48.834;8.732;2022-11-02T07:31:44;11.68;;;2.17;;
33830;SDS011;20137;48.834;8.732;2022-11-02T07:34:10;12.98;;;2.92;;
33830;SDS011;20137;48.834;8.732;2022-11-02T07:36:37;9.13;;;2.17;;
33830;SDS011;20137;48.834;8.732;2022-11-02T07:39:02;12.20;;;2.38;;
33830;SDS011;20137;48.834;8.732;2022-11-02T07:41:28;13.73;;;5.50;;
33830;SDS011;20137;48.834;8.732;2022-11-02T07:43:54;14.60;;;2.80;;
33830;SDS011;20137;48.834;8.732;2022-11-02T07:46:20;11.60;;;2.88;;
33830;SDS011;20137;48.834;8.732;2022-11-02T07:48:46;10.57;;;2.65;;
33830;SDS011;20137;48.834;8.732;2022-11-02T07:51:12;10.73;;;2.13;;
33830;SDS011;20137;48.834;8.732;2022-11-02T07:53:38;9.43;;;1.95;;
33830;SDS011;20137;48.834;8.732;2022-11-02T07:56:04;7.38;;;2.10;;
33830;SDS011;20137;48.834;8.732;2022-11-02T07:58:30;8.65;;;1.95;;
33830;SDS011;20137;48.834;8.732;2022-11-02T08:00:56;6.45;;;1.67;;
33830;SDS011;20137;48.834;8.732;2022-11-02T08:03:23;11.65;;;1.92;;
33830;SDS011;20137;48.834;8.732;2022-11-02T08:05:49;9.27;;;1.83;;
33830;SDS011;20137;48.834;8.732;2022-11-02T08:08:16;9.05;;;1.85;;
33830;SDS011;20137;48.834;8.732;2022-11-02T08:10:44;7.60;;;1.90;;
33830;SDS011;20137;48.834;8.732;2022-11-02T08:13:16;7.15;;;2.15;;
33830;SDS011;20137;48.834;8.732;2022-11-02T08:15:53;12.32;;;2.10;;
33830;SDS011;20137;48.834;8.732;2022-11-02T08:18:20;10.10;;;1.55;;
33830;SDS011;20137;48.834;8.732;2022-11-02T08:20:47;6.53;;;1.70;;
33830;SDS011;20137;48.834;8.732;2022-11-02T08:23:13;11.95;;;2.20;;
33830;SDS011;20137;48.834;8.732;2022-11-02T08:25:40;9.80;;;2.65;;
33830;SDS011;20137;48.834;8.732;2022-11-02T08:28:09;9.55;;;1.77;;
33830;SDS011;20137;48.834;8.732;2022-11-02T08:30:37;8.43;;;1.85;;
33830;SDS011;20137;48.834;8.732;2022-11-02T08:33:03;11.88;;;2.45;;
33830;SDS011;20137;48.834;8.732;2022-11-02T08:35:30;9.95;;;1.88;;
33830;SDS011;20137;48.834;8.732;2022-11-02T08:37:57;9.60;;;2.10;;
33830;SDS011;20137;48.834;8.732;2022-11-02T08:40:24;11.52;;;2.53;;
33830;SDS011;20137;48.834;8.732;2022-11-02T08:42:54;6.15;;;1.60;;
33830;SDS011;20137;48.834;8.732;2022-11-02T08:45:21;16.98;;;2.47;;
33830;SDS011;20137;48.834;8.732;2022-11-02T08:47:47;16.83;;;2.47;;
33830;SDS011;20137;48.834;8.732;2022-11-02T08:50:13;7.90;;;1.65;;
33830;SDS011;20137;48.834;8.732;2022-11-02T08:52:38;8.52;;;2.17;;
33830;SDS011;20137;48.834;8.732;2022-11-02T08:55:04;10.65;;;1.60;;
33830;SDS011;20137;48.834;8.732;2022-11-02T08:57:30;10.35;;;2.28;;
33830;SDS011;20137;48.834;8.732;2022-11-02T08:59:56;7.35;;;2.15;;
33830;SDS011;20137;48.834;8.732;2022-11-02T09:02:22;12.02;;;2.10;;
33830;SDS011;20137;48.834;8.732;2022-11-02T09:04:48;12.00;;;2.30;;
33830;SDS011;20137;48.834;8.732;2022-11-02T09:07:13;12.77;;;2.33;;
33830;SDS011;20137;48.834;8.732;2022-11-02T09:09:39;12.25;;;2.13;;
33830;SDS011;20137;48.834;8.732;2022-11-02T09:12:05;9.40;;;2.08;;
33830;SDS011;20137;48.834;8.732;2022-11-02T09:14:31;6.82;;;2.00;;
33830;SDS011;20137;48.834;8.732;2022-11-02T09:16:56;13.27;;;1.88;;
33830;SDS011;20137;48.834;8.732;2022-11-02T09:19:22;14.00;;;2.13;;
33830;SDS011;20137;48.834;8.732;2022-11-02T09:21:48;11.48;;;1.90;;
33830;SDS011;20137;48.834;8.732;2022-11-02T09:24:15;15.77;;;2.28;;
33830;SDS011;20137;48.834;8.732;2022-11-02T09:26:40;9.23;;;2.10;;
33830;SDS011;20137;48.834;8.732;2022-11-02T09:29:06;11.48;;;2.17;;
33830;SDS011;20137;48.834;8.732;2022-11-02T09:31:32;7.13;;;1.50;;
33830;SDS011;20137;48.834;8.732;2022-11-02T09:33:58;8.40;;;1.77;;
33830;SDS011;20137;48.834;8.732;2022-11-02T09:36:23;15.75;;;2.00;;
33830;SDS011;20137;48.834;8.732;2022-11-02T09:38:49;9.68;;;1.80;;
33830;SDS011;20137;48.834;8.732;2022-11-02T09:44:01;14.98;;;2.20;;
33830;SDS011;20137;48.834;8.732;2022-11-02T09:46:40;6.47;;;2.03;;
33830;SDS011;20137;48.834;8.732;2022-11-02T09:49:15;12.73;;;2.05;;
33830;SDS011;20137;48.834;8.732;2022-11-02T09:51:45;13.50;;;2.03;;
33830;SDS011;20137;48.834;8.732;2022-11-02T09:56:55;13.63;;;1.80;;
33830;SDS011;20137;48.834;8.732;2022-11-02T09:59:24;10.98;;;2.22;;
33830;SDS011;20137;48.834;8.732;2022-11-02T10:02:12;7.32;;;1.60;;
33830;SDS011;20137;48.834;8.732;2022-11-02T10:04:57;12.73;;;2.25;;
33830;SDS011;20137;48.834;8.732;2022-11-02T10:07:53;9.23;;;1.73;;
33830;SDS011;20137;48.834;8.732;2022-11-02T10:10:36;11.70;;;2.05;;
33830;SDS011;20137;48.834;8.732;2022-11-02T10:15:47;11.27;;;1.92;;
33830;SDS011;20137;48.834;8.732;2022-11-02T10:18:23;7.90;;;1.65;;
33830;SDS011;20137;48.834;8.732;2022-11-02T10:20:52;11.23;;;1.85;;
33830;SDS011;20137;48.834;8.732;2022-11-02T10:23:24;8.02;;;1.80;;
33830;SDS011;20137;48.834;8.732;2022-11-02T10:25:50;15.20;;;2.25;;
33830;SDS011;20137;48.834;8.732;2022-11-02T10:28:18;10.43;;;1.80;;
33830;SDS011;20137;48.834;8.732;2022-11-02T10:30:48;11.85;;;1.77;;
33830;SDS011;20137;48.834;8.732;2022-11-02T10:33:15;16.73;;;2.45;;
33830;SDS011;20137;48.834;8.732;2022-11-02T10:35:53;10.05;;;2.28;;
33830;SDS011;20137;48.834;8.732;2022-11-02T10:44:25;9.05;;;2.03;;
33830;SDS011;20137;48.834;8.732;2022-11-02T10:52:26;8.50;;;1.77;;
33830;SDS011;20137;48.834;8.732;2022-11-02T10:54:59;12.85;;;2.50;;
33830;SDS011;20137;48.834;8.732;2022-11-02T10:57:25;12.60;;;2.17;;
33830;SDS011;20137;48.834;8.732;2022-11-02T11:03:00;13.98;;;2.05;;
33830;SDS011;20137;48.834;8.732;2022-11-02T11:05:58;16.38;;;2.20;;
33830;SDS011;20137;48.834;8.732;2022-11-02T11:13:59;10.88;;;2.00;;
33830;SDS011;20137;48.834;8.732;2022-11-02T11:16:43;10.00;;;1.70;;
33830;SDS011;20137;48.834;8.732;2022-11-02T11:19:35;11.48;;;1.77;;
33830;SDS011;20137;48.834;8.732;2022-11-02T11:30:43;9.23;;;2.00;;
33830;SDS011;20137;48.834;8.732;2022-11-02T11:33:03;16.95;;;2.30;;
33830;SDS011;20137;48.834;8.732;2022-11-02T11:35:34;17.25;;;2.55;;
33830;SDS011;20137;48.834;8.732;2022-11-02T11:38:04;13.80;;;1.98;;
33830;SDS011;20137;48.834;8.732;2022-11-02T11:40:42;15.05;;;2.35;;
33830;SDS011;20137;48.834;8.732;2022-11-02T11:43:09;12.57;;;2.45;;
33830;SDS011;20137;48.834;8.732;2022-11-02T11:45:38;12.65;;;2.33;;
33830;SDS011;20137;48.834;8.732;2022-11-02T11:48:23;11.85;;;1.80;;
33830;SDS011;20137;48.834;8.732;2022-11-02T11:50:58;11.85;;;2.80;;
33830;SDS011;20137;48.834;8.732;2022-11-02T11:53:27;12.57;;;2.58;;
33830;SDS011;20137;48.834;8.732;2022-11-02T11:55:54;17.33;;;2.53;;
33830;SDS011;20137;48.834;8.732;2022-11-02T11:58:27;11.38;;;2.05;;
33830;SDS011;20137;48.834;8.732;2022-11-02T12:01:01;10.98;;;2.50;;
33830;SDS011;20137;48.834;8.732;2022-11-02T12:03:31;14.68;;;1.98;;
33830;SDS011;20137;48.834;8.732;2022-11-02T12:11:48;12.77;;;1.95;;
33830;SDS011;20137;48.834;8.732;2022-11-02T12:20:16;11.27;;;2.20;;
33830;SDS011;20137;48.834;8.732;2022-11-02T12:25:51;10.40;;;2.35;;
33830;SDS011;20137;48.834;8.732;2022-11-02T12:39:02;18.55;;;2.90;;
33830;SDS011;20137;48.834;8.732;2022-11-02T12:50:35;17.58;;;2.85;;
33830;SDS011;20137;48.834;8.732;2022-11-02T12:56:41;13.95;;;2.60;;
33830;SDS011;20137;48.834;8.732;2022-11-02T12:59:16;14.13;;;2.90;;
33830;SDS011;20137;48.834;8.732;2022-11-02T13:01:50;17.88;;;2.60;;
33830;SDS011;20137;48.834;8.732;2022-11-02T13:04:37;25.98;;;7.88;;
33830;SDS011;20137;48.834;8.732;2022-11-02T13:07:10;27.35;;;7.22;;
33830;SDS011;20137;48.834;8.732;2022-11-02T13:09:45;14.02;;;3.00;;
33830;SDS011;20137;48.834;8.732;2022-11-02T13:12:15;11.98;;;2.60;;
33830;SDS011;20137;48.834;8.732;2022-11-02T13:14:46;11.60;;;2.10;;
33830;SDS011;20137;48.834;8.732;2022-11-02T13:17:39;12.63;;;2.42;;
33830;SDS011;20137;48.834;8.732;2022-11-02T13:20:28;10.63;;;1.85;;
33830;SDS011;20137;48.834;8.732;2022-11-02T13:23:04;14.27;;;2.40;;
33830;SDS011;20137;48.834;8.732;2022-11-02T13:25:39;9.82;;;1.90;;
33830;SDS011;20137;48.834;8.732;2022-11-02T13:28:11;15.10;;;2.63;;
33830;SDS011;20137;48.834;8.732;2022-11-02T13:30:42;17.52;;;2.78;;
33830;SDS011;20137;48.834;8.732;2022-11-02T13:35:46;8.43;;;2.08;;
33830;SDS011;20137;48.834;8.732;2022-11-02T13:49:16;11.52;;;2.60;;
33830;SDS011;20137;48.834;8.732;2022-11-02T13:51:54;10.98;;;2.22;;
33830;SDS011;20137;48.834;8.732;2022-11-02T13:54:40;8.80;;;2.20;;
33830;SDS011;20137;48.834;8.732;2022-11-02T13:59:44;12.77;;;2.13;;
33830;SDS011;20137;48.834;8.732;2022-11-02T14:02:11;9.13;;;1.85;;
33830;SDS011;20137;48.834;8.732;2022-11-02T14:04:41;14.38;;;2.60;;
33830;SDS011;20137;48.834;8.732;2022-11-02T14:07:18;10.40;;;2.35;;
33830;SDS011;20137;48.834;8.732;2022-11-02T14:09:56;11.20;;;2.45;;
33830;SDS011;20137;48.834;8.732;2022-11-02T14:12:42;9.38;;;2.35;;
33830;SDS011;20137;48.834;8.732;2022-11-02T14:33:34;9.45;;;1.70;;
33830;SDS011;20137;48.834;8.732;2022-11-02T14:36:08;12.73;;;2.10;;
33830;SDS011;20137;48.834;8.732;2022-11-02T14:46:45;8.10;;;2.05;;
33830;SDS011;20137;48.834;8.732;2022-11-02T14:49:37;14.15;;;2.67;;
33830;SDS011;20137;48.834;8.732;2022-11-02T14:54:44;6.05;;;1.67;;
33830;SDS011;20137;48.834;8.732;2022-11-02T14:57:37;12.38;;;1.80;;
33830;SDS011;20137;48.834;8.732;2022-11-02T15:00:19;10.50;;;2.30;;
33830;SDS011;20137;48.834;8.732;2022-11-02T15:02:46;11.95;;;2.10;;
33830;SDS011;20137;48.834;8.732;2022-11-02T15:07:55;11.02;;;2.50;;
33830;SDS011;20137;48.834;8.732;2022-11-02T15:18:30;8.68;;;1.77;;
33830;SDS011;20137;48.834;8.732;2022-11-02T15:23:43;11.68;;;2.22;;
33830;SDS011;20137;48.834;8.732;2022-11-02T15:26:15;10.35;;;1.95;;
33830;SDS011;20137;48.834;8.732;2022-11-02T15:28:47;11.18;;;2.95;;
33830;SDS011;20137;48.834;8.732;2022-11-02T15:31:17;13.27;;;2.75;;
33830;SDS011;20137;48.834;8.732;2022-11-02T15:33:45;12.77;;;2.78;;
33830;SDS011;20137;48.834;8.732;2022-11-02T15:36:35;11.65;;;2.60;;
33830;SDS011;20137;48.834;8.732;2022-11-02T15:39:03;11.40;;;2.65;;
33830;SDS011;20137;48.834;8.732;2022-11-02T15:54:59;10.27;;;3.70;;
33830;SDS011;20137;48.834;8.732;2022-11-02T15:57:56;16.30;;;4.72;;
33830;SDS011;20137;48.834;8.732;2022-11-02T16:00:37;26.73;;;9.52;;
33830;SDS011;20137;48.834;8.732;2022-11-02T16:03:03;29.98;;;12.35;;
33830;SDS011;20137;48.834;8.732;2022-11-02T16:05:31;50.80;;;23.00;;
33830;SDS011;20137;48.834;8.732;2022-11-02T16:08:19;46.83;;;21.83;;
33830;SDS011;20137;48.834;8.732;2022-11-02T16:11:02;56.25;;;27.42;;
33830;SDS011;20137;48.834;8.732;2022-11-02T16:13:41;49.47;;;20.17;;
33830;SDS011;20137;48.834;8.732;2022-11-02T16:16:10;29.55;;;11.93;;
33830;SDS011;20137;48.834;8.732;2022-11-02T16:18:39;23.13;;;9.23;;
33830;SDS011;20137;48.834;8.732;2022-11-02T16:21:08;37.80;;;15.60;;
33830;SDS011;20137;48.834;8.732;2022-11-02T16:23:36;36.35;;;15.63;;
33830;SDS011;20137;48.834;8.732;2022-11-02T16:26:05;42.63;;;20.45;;
33830;SDS011;20137;48.834;8.732;2022-11-02T16:28:36;26.58;;;11.40;;
33830;SDS011;20137;48.834;8.732;2022-11-02T16:36:04;25.08;;;11.18;;
33830;SDS011;20137;48.834;8.732;2022-11-02T16:38:30;22.50;;;9.93;;
33830;SDS011;20137;48.834;8.732;2022-11-02T16:40:57;18.63;;;8.95;;
33830;SDS011;20137;48.834;8.732;2022-11-02T16:43:24;15.02;;;6.85;;
33830;SDS011;20137;48.834;8.732;2022-11-02T16:45:50;17.75;;;5.22;;
33830;SDS011;20137;48.834;8.732;2022-11-02T16:48:25;11.63;;;4.10;;
33830;SDS011;20137;48.834;8.732;2022-11-02T16:51:00;13.00;;;4.13;;
33830;SDS011;20137;48.834;8.732;2022-11-02T16:53:52;15.60;;;4.05;;
33830;SDS011;20137;48.834;8.732;2022-11-02T16:56:28;10.18;;;3.97;;
33830;SDS011;20137;48.834;8.732;2022-11-02T16:59:02;14.32;;;4.07;;
33830;SDS011;20137;48.834;8.732;2022-11-02T17:01:34;19.45;;;3.80;;
33830;SDS011;20137;48.834;8.732;2022-11-02T17:04:23;14.43;;;4.97;;
33830;SDS011;20137;48.834;8.732;2022-11-02T17:06:49;12.43;;;4.55;;
33830;SDS011;20137;48.834;8.732;2022-11-02T17:11:52;20.55;;;7.47;;
33830;SDS011;20137;48.834;8.732;2022-11-02T17:14:20;19.67;;;9.15;;
33830;SDS011;20137;48.834;8.732;2022-11-02T17:22:25;17.77;;;5.53;;
33830;SDS011;20137;48.834;8.732;2022-11-02T17:25:53;20.88;;;9.20;;
33830;SDS011;20137;48.834;8.732;2022-11-02T17:27:56;19.20;;;6.22;;
33830;SDS011;20137;48.834;8.732;2022-11-02T17:33:08;18.53;;;6.07;;
33830;SDS011;20137;48.834;8.732;2022-11-02T17:35:44;13.82;;;4.28;;
33830;SDS011;20137;48.834;8.732;2022-11-02T17:38:12;10.07;;;4.20;;
33830;SDS011;20137;48.834;8.732;2022-11-02T17:40:37;13.70;;;3.63;;
33830;SDS011;20137;48.834;8.732;2022-11-02T17:43:03;18.85;;;4.03;;
33830;SDS011;20137;48.834;8.732;2022-11-02T17:45:30;12.45;;;3.65;;
33830;SDS011;20137;48.834;8.732;2022-11-02T17:48:03;15.88;;;4.10;;
33830;SDS011;20137;48.834;8.732;2022-11-02T17:50:31;16.92;;;4.85;;
33830;SDS011;20137;48.834;8.732;2022-11-02T17:52:59;14.48;;;4.72;;
33830;SDS011;20137;48.834;8.732;2022-11-02T17:55:27;15.13;;;4.10;;
33830;SDS011;20137;48.834;8.732;2022-11-02T17:57:54;14.27;;;3.75;;
33830;SDS011;20137;48.834;8.732;2022-11-02T18:00:21;19.17;;;4.60;;
33830;SDS011;20137;48.834;8.732;2022-11-02T18:02:50;21.38;;;4.70;;
33830;SDS011;20137;48.834;8.732;2022-11-02T18:05:22;15.05;;;4.85;;
33830;SDS011;20137;48.834;8.732;2022-11-02T18:07:48;17.77;;;4.80;;
33830;SDS011;20137;48.834;8.732;2022-11-02T18:10:14;13.48;;;4.05;;